Terminal Aerodrome Forecast
Issued by NWS

Home | Current Version | Previous Version | Text Only | Print | Product List | Glossary On
Versions: 1 2 3 4 5 6 7 8 9 10 11 12 13 14 15 16 17 18 19 20 21 22 23 24 25 26 27 28 29 30 31 32
000
FTUS43 KLOT 311400 AAB
TAFDPA
TAF AMD
KDPA 311412Z 3114/0112 35020G33KT P6SM BKN017 BKN025
     FM311630 36025G35KT P6SM BKN030
     FM312300 36020G30KT P6SM FEW035
     FM010200 35014G20KT P6SM SCT035=

USA.gov is the U.S. government's official web portal to all federal, state and local government web resources and services.